sensor_id;sensor_type;location;lat;lon;timestamp;P1;durP1;ratioP1;P2;durP2;ratioP2
3959;SDS011;1994;48.640;8.894;2023-07-22T00:01:00;2.30;;;2.10;;
3959;SDS011;1994;48.640;8.894;2023-07-22T00:03:26;2.30;;;2.10;;
3959;SDS011;1994;48.640;8.894;2023-07-22T00:06:05;2.10;;;2.00;;
3959;SDS011;1994;48.640;8.894;2023-07-22T00:08:37;2.10;;;1.70;;
3959;SDS011;1994;48.640;8.894;2023-07-22T00:11:06;2.97;;;2.00;;
3959;SDS011;1994;48.640;8.894;2023-07-22T00:13:33;2.87;;;2.43;;
3959;SDS011;1994;48.640;8.894;2023-07-22T00:16:00;2.80;;;2.03;;
3959;SDS011;1994;48.640;8.894;2023-07-22T00:18:27;2.57;;;2.37;;
3959;SDS011;1994;48.640;8.894;2023-07-22T00:20:54;2.43;;;2.20;;
3959;SDS011;1994;48.640;8.894;2023-07-22T00:23:20;2.40;;;2.27;;
3959;SDS011;1994;48.640;8.894;2023-07-22T00:25:46;2.70;;;2.17;;
3959;SDS011;1994;48.640;8.894;2023-07-22T00:28:12;2.80;;;1.93;;
3959;SDS011;1994;48.640;8.894;2023-07-22T00:30:39;2.83;;;2.40;;
3959;SDS011;1994;48.640;8.894;2023-07-22T00:33:05;2.20;;;2.00;;
3959;SDS011;1994;48.640;8.894;2023-07-22T00:35:31;2.00;;;1.90;;
3959;SDS011;1994;48.640;8.894;2023-07-22T00:37:57;7.50;;;2.43;;
3959;SDS011;1994;48.640;8.894;2023-07-22T00:40:25;2.67;;;2.47;;
3959;SDS011;1994;48.640;8.894;2023-07-22T00:42:51;2.40;;;2.20;;
3959;SDS011;1994;48.640;8.894;2023-07-22T00:45:17;2.57;;;2.20;;
3959;SDS011;1994;48.640;8.894;2023-07-22T00:47:43;2.37;;;2.17;;
3959;SDS011;1994;48.640;8.894;2023-07-22T00:50:10;2.70;;;2.37;;
3959;SDS011;1994;48.640;8.894;2023-07-22T00:52:36;2.70;;;2.50;;
3959;SDS011;1994;48.640;8.894;2023-07-22T00:55:03;2.10;;;1.90;;
3959;SDS011;1994;48.640;8.894;2023-07-22T00:57:30;2.30;;;2.20;;
3959;SDS011;1994;48.640;8.894;2023-07-22T00:59:56;5.33;;;2.93;;
3959;SDS011;1994;48.640;8.894;2023-07-22T01:02:22;2.20;;;2.10;;
3959;SDS011;1994;48.640;8.894;2023-07-22T01:04:49;2.80;;;2.40;;
3959;SDS011;1994;48.640;8.894;2023-07-22T01:07:16;2.40;;;2.30;;
3959;SDS011;1994;48.640;8.894;2023-07-22T01:09:43;2.60;;;2.50;;
3959;SDS011;1994;48.640;8.894;2023-07-22T01:12:10;2.60;;;2.40;;
3959;SDS011;1994;48.640;8.894;2023-07-22T01:14:37;6.40;;;3.00;;
3959;SDS011;1994;48.640;8.894;2023-07-22T01:17:05;2.10;;;2.00;;
3959;SDS011;1994;48.640;8.894;2023-07-22T01:19:33;9.27;;;2.57;;
3959;SDS011;1994;48.640;8.894;2023-07-22T01:22:00;2.47;;;2.37;;
3959;SDS011;1994;48.640;8.894;2023-07-22T01:24:29;2.43;;;2.23;;
3959;SDS011;1994;48.640;8.894;2023-07-22T01:26:56;2.17;;;2.07;;
3959;SDS011;1994;48.640;8.894;2023-07-22T01:29:22;4.30;;;2.73;;
3959;SDS011;1994;48.640;8.894;2023-07-22T01:31:50;2.50;;;2.40;;
3959;SDS011;1994;48.640;8.894;2023-07-22T01:34:18;3.07;;;2.67;;
3959;SDS011;1994;48.640;8.894;2023-07-22T01:36:45;2.30;;;2.17;;
3959;SDS011;1994;48.640;8.894;2023-07-22T01:39:12;2.63;;;2.50;;
3959;SDS011;1994;48.640;8.894;2023-07-22T01:41:39;3.40;;;3.20;;
3959;SDS011;1994;48.640;8.894;2023-07-22T01:44:05;3.07;;;2.87;;
3959;SDS011;1994;48.640;8.894;2023-07-22T01:46:31;3.53;;;2.37;;
3959;SDS011;1994;48.640;8.894;2023-07-22T01:48:57;2.83;;;2.63;;
3959;SDS011;1994;48.640;8.894;2023-07-22T01:51:22;2.70;;;2.50;;
3959;SDS011;1994;48.640;8.894;2023-07-22T01:53:49;4.10;;;2.50;;
3959;SDS011;1994;48.640;8.894;2023-07-22T01:56:16;3.00;;;2.47;;
3959;SDS011;1994;48.640;8.894;2023-07-22T01:58:42;4.40;;;2.33;;
3959;SDS011;1994;48.640;8.894;2023-07-22T02:01:08;2.30;;;2.10;;
3959;SDS011;1994;48.640;8.894;2023-07-22T02:03:34;3.50;;;3.20;;
3959;SDS011;1994;48.640;8.894;2023-07-22T02:06:03;2.10;;;2.00;;
3959;SDS011;1994;48.640;8.894;2023-07-22T02:08:29;4.17;;;3.17;;
3959;SDS011;1994;48.640;8.894;2023-07-22T02:11:00;4.60;;;2.70;;
3959;SDS011;1994;48.640;8.894;2023-07-22T02:13:31;2.80;;;2.60;;
3959;SDS011;1994;48.640;8.894;2023-07-22T02:15:59;2.93;;;2.73;;
3959;SDS011;1994;48.640;8.894;2023-07-22T02:18:25;2.37;;;2.27;;
3959;SDS011;1994;48.640;8.894;2023-07-22T02:20:52;3.10;;;2.90;;
3959;SDS011;1994;48.640;8.894;2023-07-22T02:23:19;2.90;;;2.20;;
3959;SDS011;1994;48.640;8.894;2023-07-22T02:25:49;2.43;;;2.33;;
3959;SDS011;1994;48.640;8.894;2023-07-22T02:28:16;2.73;;;2.53;;
3959;SDS011;1994;48.640;8.894;2023-07-22T02:30:46;5.80;;;2.30;;
3959;SDS011;1994;48.640;8.894;2023-07-22T02:33:27;2.60;;;2.40;;
3959;SDS011;1994;48.640;8.894;2023-07-22T02:35:53;2.47;;;2.10;;
3959;SDS011;1994;48.640;8.894;2023-07-22T02:38:18;2.40;;;2.30;;
3959;SDS011;1994;48.640;8.894;2023-07-22T02:40:44;2.67;;;1.90;;
3959;SDS011;1994;48.640;8.894;2023-07-22T02:43:10;2.53;;;2.13;;
3959;SDS011;1994;48.640;8.894;2023-07-22T02:45:36;2.90;;;2.70;;
3959;SDS011;1994;48.640;8.894;2023-07-22T02:48:02;2.37;;;2.27;;
3959;SDS011;1994;48.640;8.894;2023-07-22T02:50:28;2.87;;;2.67;;
3959;SDS011;1994;48.640;8.894;2023-07-22T02:52:55;3.53;;;2.47;;
3959;SDS011;1994;48.640;8.894;2023-07-22T02:55:21;3.17;;;2.97;;
3959;SDS011;1994;48.640;8.894;2023-07-22T02:57:48;3.30;;;2.53;;
3959;SDS011;1994;48.640;8.894;2023-07-22T03:00:15;3.60;;;2.73;;
3959;SDS011;1994;48.640;8.894;2023-07-22T03:02:48;8.53;;;2.43;;
3959;SDS011;1994;48.640;8.894;2023-07-22T03:05:18;2.87;;;2.67;;
3959;SDS011;1994;48.640;8.894;2023-07-22T03:07:46;3.03;;;2.83;;
3959;SDS011;1994;48.640;8.894;2023-07-22T03:10:12;3.20;;;2.60;;
3959;SDS011;1994;48.640;8.894;2023-07-22T03:12:38;2.33;;;2.20;;
3959;SDS011;1994;48.640;8.894;2023-07-22T03:15:04;5.70;;;2.50;;
3959;SDS011;1994;48.640;8.894;2023-07-22T03:17:33;2.50;;;2.30;;
3959;SDS011;1994;48.640;8.894;2023-07-22T03:20:01;2.60;;;2.40;;
3959;SDS011;1994;48.640;8.894;2023-07-22T03:22:39;2.73;;;2.40;;
3959;SDS011;1994;48.640;8.894;2023-07-22T03:25:06;2.67;;;2.57;;
3959;SDS011;1994;48.640;8.894;2023-07-22T03:27:35;1.77;;;1.67;;
3959;SDS011;1994;48.640;8.894;2023-07-22T03:30:02;2.77;;;2.57;;
3959;SDS011;1994;48.640;8.894;2023-07-22T03:32:31;2.30;;;2.20;;
3959;SDS011;1994;48.640;8.894;2023-07-22T03:34:57;2.47;;;2.37;;
3959;SDS011;1994;48.640;8.894;2023-07-22T03:37:23;2.83;;;2.63;;
3959;SDS011;1994;48.640;8.894;2023-07-22T03:39:49;2.50;;;2.07;;
3959;SDS011;1994;48.640;8.894;2023-07-22T03:42:15;2.53;;;2.33;;
3959;SDS011;1994;48.640;8.894;2023-07-22T03:44:41;2.73;;;2.30;;
3959;SDS011;1994;48.640;8.894;2023-07-22T03:47:07;2.03;;;1.93;;
3959;SDS011;1994;48.640;8.894;2023-07-22T03:49:33;2.10;;;2.00;;
3959;SDS011;1994;48.640;8.894;2023-07-22T03:51:59;7.23;;;2.70;;
3959;SDS011;1994;48.640;8.894;2023-07-22T03:54:24;2.50;;;2.37;;
3959;SDS011;1994;48.640;8.894;2023-07-22T03:56:50;2.33;;;2.13;;
3959;SDS011;1994;48.640;8.894;2023-07-22T03:59:16;9.83;;;2.53;;
3959;SDS011;1994;48.640;8.894;2023-07-22T04:01:42;2.60;;;2.40;;
3959;SDS011;1994;48.640;8.894;2023-07-22T04:04:08;2.33;;;2.13;;
3959;SDS011;1994;48.640;8.894;2023-07-22T04:06:34;3.90;;;2.43;;
3959;SDS011;1994;48.640;8.894;2023-07-22T04:09:00;2.67;;;2.47;;
3959;SDS011;1994;48.640;8.894;2023-07-22T04:11:26;2.57;;;2.37;;
3959;SDS011;1994;48.640;8.894;2023-07-22T04:13:52;2.93;;;2.73;;
3959;SDS011;1994;48.640;8.894;2023-07-22T04:16:18;2.90;;;2.70;;
3959;SDS011;1994;48.640;8.894;2023-07-22T04:18:44;2.07;;;1.97;;
3959;SDS011;1994;48.640;8.894;2023-07-22T04:21:10;2.60;;;2.40;;
3959;SDS011;1994;48.640;8.894;2023-07-22T04:23:36;2.50;;;2.30;;
3959;SDS011;1994;48.640;8.894;2023-07-22T04:26:03;2.13;;;2.03;;
3959;SDS011;1994;48.640;8.894;2023-07-22T04:28:34;2.10;;;2.00;;
3959;SDS011;1994;48.640;8.894;2023-07-22T04:31:00;2.27;;;2.07;;
3959;SDS011;1994;48.640;8.894;2023-07-22T04:33:27;2.77;;;2.47;;
3959;SDS011;1994;48.640;8.894;2023-07-22T04:35:57;2.20;;;2.10;;
3959;SDS011;1994;48.640;8.894;2023-07-22T04:38:25;2.73;;;2.00;;
3959;SDS011;1994;48.640;8.894;2023-07-22T04:40:50;2.20;;;2.00;;
3959;SDS011;1994;48.640;8.894;2023-07-22T04:43:16;2.63;;;2.33;;
3959;SDS011;1994;48.640;8.894;2023-07-22T04:45:45;7.63;;;2.40;;
3959;SDS011;1994;48.640;8.894;2023-07-22T04:48:13;3.83;;;2.70;;
3959;SDS011;1994;48.640;8.894;2023-07-22T04:50:45;2.70;;;2.50;;
3959;SDS011;1994;48.640;8.894;2023-07-22T04:53:11;2.50;;;2.30;;
3959;SDS011;1994;48.640;8.894;2023-07-22T04:55:40;2.70;;;2.50;;
3959;SDS011;1994;48.640;8.894;2023-07-22T04:58:07;2.23;;;2.10;;
3959;SDS011;1994;48.640;8.894;2023-07-22T05:00:34;3.13;;;2.50;;
3959;SDS011;1994;48.640;8.894;2023-07-22T05:03:02;2.67;;;2.40;;
3959;SDS011;1994;48.640;8.894;2023-07-22T05:05:28;2.67;;;2.47;;
3959;SDS011;1994;48.640;8.894;2023-07-22T05:07:54;2.50;;;1.90;;
3959;SDS011;1994;48.640;8.894;2023-07-22T05:10:21;2.30;;;2.10;;
3959;SDS011;1994;48.640;8.894;2023-07-22T05:12:47;1.90;;;1.80;;
3959;SDS011;1994;48.640;8.894;2023-07-22T05:15:13;2.03;;;1.93;;
3959;SDS011;1994;48.640;8.894;2023-07-22T05:17:40;2.47;;;2.20;;
3959;SDS011;1994;48.640;8.894;2023-07-22T05:20:06;2.23;;;2.03;;
3959;SDS011;1994;48.640;8.894;2023-07-22T05:22:38;2.53;;;2.33;;
3959;SDS011;1994;48.640;8.894;2023-07-22T05:25:05;2.83;;;2.57;;
3959;SDS011;1994;48.640;8.894;2023-07-22T05:27:32;2.63;;;2.43;;
3959;SDS011;1994;48.640;8.894;2023-07-22T05:29:58;2.70;;;2.43;;
3959;SDS011;1994;48.640;8.894;2023-07-22T05:32:25;2.67;;;2.47;;
3959;SDS011;1994;48.640;8.894;2023-07-22T05:34:52;2.70;;;2.40;;
3959;SDS011;1994;48.640;8.894;2023-07-22T05:37:18;2.10;;;2.00;;
3959;SDS011;1994;48.640;8.894;2023-07-22T05:39:44;2.57;;;2.37;;
3959;SDS011;1994;48.640;8.894;2023-07-22T05:42:10;6.10;;;2.70;;
3959;SDS011;1994;48.640;8.894;2023-07-22T05:44:36;3.07;;;2.30;;
3959;SDS011;1994;48.640;8.894;2023-07-22T05:47:02;2.50;;;2.30;;
3959;SDS011;1994;48.640;8.894;2023-07-22T05:49:27;2.90;;;2.70;;
3959;SDS011;1994;48.640;8.894;2023-07-22T05:51:53;2.77;;;2.40;;
3959;SDS011;1994;48.640;8.894;2023-07-22T05:54:19;3.00;;;2.37;;
3959;SDS011;1994;48.640;8.894;2023-07-22T05:56:46;3.17;;;2.03;;
3959;SDS011;1994;48.640;8.894;2023-07-22T05:59:11;2.10;;;2.00;;
3959;SDS011;1994;48.640;8.894;2023-07-22T06:01:37;2.37;;;2.17;;
3959;SDS011;1994;48.640;8.894;2023-07-22T06:04:03;2.43;;;2.00;;
3959;SDS011;1994;48.640;8.894;2023-07-22T06:06:30;2.90;;;2.30;;
3959;SDS011;1994;48.640;8.894;2023-07-22T06:08:56;2.37;;;2.13;;
3959;SDS011;1994;48.640;8.894;2023-07-22T06:11:22;6.63;;;2.70;;
3959;SDS011;1994;48.640;8.894;2023-07-22T06:13:47;2.10;;;2.00;;
3959;SDS011;1994;48.640;8.894;2023-07-22T06:16:13;2.63;;;2.50;;
3959;SDS011;1994;48.640;8.894;2023-07-22T06:18:39;10.73;;;2.00;;
3959;SDS011;1994;48.640;8.894;2023-07-22T06:21:05;2.33;;;2.13;;
3959;SDS011;1994;48.640;8.894;2023-07-22T06:23:31;2.57;;;2.37;;
3959;SDS011;1994;48.640;8.894;2023-07-22T06:25:56;2.10;;;2.00;;
3959;SDS011;1994;48.640;8.894;2023-07-22T06:28:22;2.20;;;2.00;;
3959;SDS011;1994;48.640;8.894;2023-07-22T06:30:48;3.60;;;2.40;;
3959;SDS011;1994;48.640;8.894;2023-07-22T06:33:14;2.07;;;1.97;;
3959;SDS011;1994;48.640;8.894;2023-07-22T06:35:41;2.50;;;2.30;;
3959;SDS011;1994;48.640;8.894;2023-07-22T06:38:07;2.00;;;1.90;;
3959;SDS011;1994;48.640;8.894;2023-07-22T06:40:33;2.13;;;2.00;;
3959;SDS011;1994;48.640;8.894;2023-07-22T06:42:58;2.50;;;2.30;;
3959;SDS011;1994;48.640;8.894;2023-07-22T06:45:24;3.30;;;2.30;;
3959;SDS011;1994;48.640;8.894;2023-07-22T06:47:50;3.07;;;2.33;;
3959;SDS011;1994;48.640;8.894;2023-07-22T06:50:16;2.67;;;2.47;;
3959;SDS011;1994;48.640;8.894;2023-07-22T06:52:42;1.93;;;1.83;;
3959;SDS011;1994;48.640;8.894;2023-07-22T06:55:08;2.53;;;2.33;;
3959;SDS011;1994;48.640;8.894;2023-07-22T06:57:34;4.80;;;2.23;;
3959;SDS011;1994;48.640;8.894;2023-07-22T06:59:59;2.77;;;2.57;;
3959;SDS011;1994;48.640;8.894;2023-07-22T07:02:26;5.10;;;2.40;;
3959;SDS011;1994;48.640;8.894;2023-07-22T07:04:52;2.50;;;2.30;;
3959;SDS011;1994;48.640;8.894;2023-07-22T07:07:18;2.47;;;2.27;;
3959;SDS011;1994;48.640;8.894;2023-07-22T07:09:43;2.40;;;2.20;;
3959;SDS011;1994;48.640;8.894;2023-07-22T07:12:10;2.37;;;2.10;;
3959;SDS011;1994;48.640;8.894;2023-07-22T07:14:35;1.60;;;1.50;;
3959;SDS011;1994;48.640;8.894;2023-07-22T07:17:01;2.00;;;1.80;;
3959;SDS011;1994;48.640;8.894;2023-07-22T07:19:27;2.53;;;2.33;;
3959;SDS011;1994;48.640;8.894;2023-07-22T07:21:54;2.03;;;1.83;;
3959;SDS011;1994;48.640;8.894;2023-07-22T07:24:19;2.20;;;2.00;;
3959;SDS011;1994;48.640;8.894;2023-07-22T07:26:46;2.53;;;2.00;;
3959;SDS011;1994;48.640;8.894;2023-07-22T07:29:11;2.30;;;2.10;;
3959;SDS011;1994;48.640;8.894;2023-07-22T07:31:38;2.00;;;1.90;;
3959;SDS011;1994;48.640;8.894;2023-07-22T07:34:04;2.97;;;2.07;;
3959;SDS011;1994;48.640;8.894;2023-07-22T07:36:31;2.53;;;1.80;;
3959;SDS011;1994;48.640;8.894;2023-07-22T07:38:59;2.13;;;1.93;;
3959;SDS011;1994;48.640;8.894;2023-07-22T07:41:25;2.43;;;1.87;;
3959;SDS011;1994;48.640;8.894;2023-07-22T07:43:51;1.70;;;1.60;;
3959;SDS011;1994;48.640;8.894;2023-07-22T07:46:20;1.90;;;1.80;;
3959;SDS011;1994;48.640;8.894;2023-07-22T07:48:53;1.90;;;1.80;;
3959;SDS011;1994;48.640;8.894;2023-07-22T07:51:25;1.87;;;1.67;;
3959;SDS011;1994;48.640;8.894;2023-07-22T07:53:52;2.40;;;2.30;;
3959;SDS011;1994;48.640;8.894;2023-07-22T07:56:19;2.60;;;1.83;;
3959;SDS011;1994;48.640;8.894;2023-07-22T07:58:47;1.97;;;1.87;;
3959;SDS011;1994;48.640;8.894;2023-07-22T08:01:14;1.70;;;1.60;;
3959;SDS011;1994;48.640;8.894;2023-07-22T08:03:41;1.77;;;1.67;;
3959;SDS011;1994;48.640;8.894;2023-07-22T08:06:08;1.13;;;1.13;;
3959;SDS011;1994;48.640;8.894;2023-07-22T08:08:36;2.27;;;2.10;;
3959;SDS011;1994;48.640;8.894;2023-07-22T08:13:39;2.00;;;1.90;;
3959;SDS011;1994;48.640;8.894;2023-07-22T08:16:09;2.60;;;1.30;;
3959;SDS011;1994;48.640;8.894;2023-07-22T08:18:37;4.17;;;1.57;;
3959;SDS011;1994;48.640;8.894;2023-07-22T08:21:03;1.30;;;1.20;;
3959;SDS011;1994;48.640;8.894;2023-07-22T08:23:33;1.60;;;1.50;;
3959;SDS011;1994;48.640;8.894;2023-07-22T08:26:01;1.60;;;1.20;;
3959;SDS011;1994;48.640;8.894;2023-07-22T08:28:29;1.70;;;1.60;;
3959;SDS011;1994;48.640;8.894;2023-07-22T08:30:55;1.37;;;1.27;;
3959;SDS011;1994;48.640;8.894;2023-07-22T08:33:24;1.50;;;1.40;;
3959;SDS011;1994;48.640;8.894;2023-07-22T08:35:50;4.60;;;2.20;;
3959;SDS011;1994;48.640;8.894;2023-07-22T08:38:17;1.50;;;1.40;;
3959;SDS011;1994;48.640;8.894;2023-07-22T08:40:42;1.30;;;1.30;;
3959;SDS011;1994;48.640;8.894;2023-07-22T08:43:09;1.27;;;1.17;;
3959;SDS011;1994;48.640;8.894;2023-07-22T08:45:37;1.43;;;1.33;;
3959;SDS011;1994;48.640;8.894;2023-07-22T08:48:06;2.30;;;1.87;;
3959;SDS011;1994;48.640;8.894;2023-07-22T08:50:37;1.40;;;1.30;;
3959;SDS011;1994;48.640;8.894;2023-07-22T08:53:17;1.60;;;1.50;;
3959;SDS011;1994;48.640;8.894;2023-07-22T08:55:44;1.20;;;1.20;;
3959;SDS011;1994;48.640;8.894;2023-07-22T08:58:12;1.30;;;1.20;;
3959;SDS011;1994;48.640;8.894;2023-07-22T09:00:39;1.73;;;1.27;;
3959;SDS011;1994;48.640;8.894;2023-07-22T09:03:05;1.50;;;1.40;;
3959;SDS011;1994;48.640;8.894;2023-07-22T09:05:32;1.40;;;1.30;;
3959;SDS011;1994;48.640;8.894;2023-07-22T09:08:03;1.73;;;1.30;;
3959;SDS011;1994;48.640;8.894;2023-07-22T09:10:32;1.17;;;1.17;;
3959;SDS011;1994;48.640;8.894;2023-07-22T09:13:02;1.60;;;1.40;;
3959;SDS011;1994;48.640;8.894;2023-07-22T09:15:28;1.13;;;1.03;;
3959;SDS011;1994;48.640;8.894;2023-07-22T09:17:56;1.67;;;1.57;;
3959;SDS011;1994;48.640;8.894;2023-07-22T09:20:22;2.60;;;1.57;;
3959;SDS011;1994;48.640;8.894;2023-07-22T09:22:49;1.30;;;1.20;;
3959;SDS011;1994;48.640;8.894;2023-07-22T09:25:17;1.30;;;1.20;;
3959;SDS011;1994;48.640;8.894;2023-07-22T09:27:49;1.87;;;1.40;;
3959;SDS011;1994;48.640;8.894;2023-07-22T09:33:04;1.60;;;1.50;;
3959;SDS011;1994;48.640;8.894;2023-07-22T09:35:46;1.40;;;1.30;;
3959;SDS011;1994;48.640;8.894;2023-07-22T09:38:14;1.07;;;1.07;;
3959;SDS011;1994;48.640;8.894;2023-07-22T09:40:49;1.70;;;1.47;;
3959;SDS011;1994;48.640;8.894;2023-07-22T09:43:16;1.60;;;1.50;;
3959;SDS011;1994;48.640;8.894;2023-07-22T09:45:42;2.03;;;1.27;;
3959;SDS011;1994;48.640;8.894;2023-07-22T09:48:13;1.50;;;1.40;;
3959;SDS011;1994;48.640;8.894;2023-07-22T09:50:39;1.30;;;1.30;;
3959;SDS011;1994;48.640;8.894;2023-07-22T09:53:05;1.60;;;1.50;;
3959;SDS011;1994;48.640;8.894;2023-07-22T09:55:32;1.37;;;1.27;;
3959;SDS011;1994;48.640;8.894;2023-07-22T09:58:02;1.50;;;1.40;;
3959;SDS011;1994;48.640;8.894;2023-07-22T10:00:36;1.60;;;1.50;;
3959;SDS011;1994;48.640;8.894;2023-07-22T10:03:03;3.57;;;1.67;;
3959;SDS011;1994;48.640;8.894;2023-07-22T10:05:33;1.40;;;1.30;;
3959;SDS011;1994;48.640;8.894;2023-07-22T10:08:01;1.30;;;1.20;;
3959;SDS011;1994;48.640;8.894;2023-07-22T10:10:33;1.83;;;1.43;;
3959;SDS011;1994;48.640;8.894;2023-07-22T10:13:02;2.20;;;1.27;;
3959;SDS011;1994;48.640;8.894;2023-07-22T10:15:30;1.50;;;1.40;;
3959;SDS011;1994;48.640;8.894;2023-07-22T10:18:04;1.40;;;1.30;;
3959;SDS011;1994;48.640;8.894;2023-07-22T10:20:30;1.60;;;1.50;;
3959;SDS011;1994;48.640;8.894;2023-07-22T10:22:59;1.33;;;1.23;;
3959;SDS011;1994;48.640;8.894;2023-07-22T10:25:26;1.57;;;1.37;;
3959;SDS011;1994;48.640;8.894;2023-07-22T10:27:53;1.50;;;1.40;;
3959;SDS011;1994;48.640;8.894;2023-07-22T10:30:20;2.00;;;1.43;;
3959;SDS011;1994;48.640;8.894;2023-07-22T10:32:51;3.20;;;1.57;;
3959;SDS011;1994;48.640;8.894;2023-07-22T10:38:17;3.73;;;1.50;;
3959;SDS011;1994;48.640;8.894;2023-07-22T10:43:12;2.03;;;1.33;;
3959;SDS011;1994;48.640;8.894;2023-07-22T10:45:43;2.03;;;1.83;;
3959;SDS011;1994;48.640;8.894;2023-07-22T10:48:15;1.40;;;1.30;;
3959;SDS011;1994;48.640;8.894;2023-07-22T10:50:48;1.00;;;1.00;;
3959;SDS011;1994;48.640;8.894;2023-07-22T11:04:03;3.63;;;1.60;;
3959;SDS011;1994;48.640;8.894;2023-07-22T11:07:00;1.87;;;1.43;;
3959;SDS011;1994;48.640;8.894;2023-07-22T11:12:01;1.40;;;1.30;;
3959;SDS011;1994;48.640;8.894;2023-07-22T11:14:32;3.27;;;1.40;;
3959;SDS011;1994;48.640;8.894;2023-07-22T11:17:02;1.53;;;1.43;;
3959;SDS011;1994;48.640;8.894;2023-07-22T11:19:30;1.60;;;1.50;;
3959;SDS011;1994;48.640;8.894;2023-07-22T11:21:58;1.77;;;1.40;;
3959;SDS011;1994;48.640;8.894;2023-07-22T11:24:25;2.33;;;1.30;;
3959;SDS011;1994;48.640;8.894;2023-07-22T11:26:52;1.40;;;1.30;;
3959;SDS011;1994;48.640;8.894;2023-07-22T11:29:18;1.30;;;1.30;;
3959;SDS011;1994;48.640;8.894;2023-07-22T11:31:45;1.50;;;1.40;;
3959;SDS011;1994;48.640;8.894;2023-07-22T11:34:17;1.83;;;1.40;;
3959;SDS011;1994;48.640;8.894;2023-07-22T11:36:46;1.60;;;1.50;;
3959;SDS011;1994;48.640;8.894;2023-07-22T11:39:17;1.67;;;1.57;;
3959;SDS011;1994;48.640;8.894;2023-07-22T11:41:45;2.80;;;1.47;;
3959;SDS011;1994;48.640;8.894;2023-07-22T11:44:13;4.80;;;1.97;;
3959;SDS011;1994;48.640;8.894;2023-07-22T11:49:31;1.70;;;1.60;;
3959;SDS011;1994;48.640;8.894;2023-07-22T11:52:03;1.50;;;1.40;;
3959;SDS011;1994;48.640;8.894;2023-07-22T11:54:40;1.70;;;1.60;;
3959;SDS011;1994;48.640;8.894;2023-07-22T11:57:14;1.40;;;1.30;;
3959;SDS011;1994;48.640;8.894;2023-07-22T11:59:44;1.60;;;1.50;;
3959;SDS011;1994;48.640;8.894;2023-07-22T12:02:22;1.50;;;1.40;;
3959;SDS011;1994;48.640;8.894;2023-07-22T12:05:03;1.43;;;1.33;;
3959;SDS011;1994;48.640;8.894;2023-07-22T12:07:31;1.70;;;1.60;;
3959;SDS011;1994;48.640;8.894;2023-07-22T12:10:02;1.43;;;1.33;;
3959;SDS011;1994;48.640;8.894;2023-07-22T12:15:08;1.57;;;1.47;;
3959;SDS011;1994;48.640;8.894;2023-07-22T12:20:28;1.60;;;1.50;;
3959;SDS011;1994;48.640;8.894;2023-07-22T12:23:00;1.80;;;1.70;;
3959;SDS011;1994;48.640;8.894;2023-07-22T12:25:26;1.20;;;1.10;;
3959;SDS011;1994;48.640;8.894;2023-07-22T12:27:52;1.80;;;1.70;;
3959;SDS011;1994;48.640;8.894;2023-07-22T12:30:18;1.60;;;1.50;;
3959;SDS011;1994;48.640;8.894;2023-07-22T12:32:44;1.77;;;1.67;;
3959;SDS011;1994;48.640;8.894;2023-07-22T12:35:10;9.57;;;1.73;;
3959;SDS011;1994;48.640;8.894;2023-07-22T12:37:38;2.13;;;2.03;;
3959;SDS011;1994;48.640;8.894;2023-07-22T12:40:04;4.10;;;1.50;;
3959;SDS011;1994;48.640;8.894;2023-07-22T12:42:33;1.60;;;1.50;;
3959;SDS011;1994;48.640;8.894;2023-07-22T12:45:00;2.00;;;1.80;;
3959;SDS011;1994;48.640;8.894;2023-07-22T12:47:27;1.47;;;1.37;;
3959;SDS011;1994;48.640;8.894;2023-07-22T12:49:53;3.27;;;1.90;;
3959;SDS011;1994;48.640;8.894;2023-07-22T12:52:18;1.77;;;1.43;;
3959;SDS011;1994;48.640;8.894;2023-07-22T12:54:44;3.27;;;2.87;;
3959;SDS011;1994;48.640;8.894;2023-07-22T12:57:10;2.50;;;1.73;;
3959;SDS011;1994;48.640;8.894;2023-07-22T12:59:36;2.23;;;2.03;;
3959;SDS011;1994;48.640;8.894;2023-07-22T13:02:01;2.10;;;1.50;;
3959;SDS011;1994;48.640;8.894;2023-07-22T13:04:27;1.60;;;1.50;;
3959;SDS011;1994;48.640;8.894;2023-07-22T13:06:53;1.93;;;1.83;;
3959;SDS011;1994;48.640;8.894;2023-07-22T13:09:19;1.73;;;1.63;;
3959;SDS011;1994;48.640;8.894;2023-07-22T13:11:45;1.80;;;1.70;;
3959;SDS011;1994;48.640;8.894;2023-07-22T13:14:11;2.13;;;2.03;;
3959;SDS011;1994;48.640;8.894;2023-07-22T13:16:37;2.27;;;2.10;;
3959;SDS011;1994;48.640;8.894;2023-07-22T13:19:03;2.43;;;1.90;;
3959;SDS011;1994;48.640;8.894;2023-07-22T13:21:29;1.67;;;1.57;;
3959;SDS011;1994;48.640;8.894;2023-07-22T13:23:55;2.00;;;1.90;;
3959;SDS011;1994;48.640;8.894;2023-07-22T13:26:21;4.93;;;2.00;;
3959;SDS011;1994;48.640;8.894;2023-07-22T13:28:47;1.83;;;1.73;;
3959;SDS011;1994;48.640;8.894;2023-07-22T13:31:12;1.93;;;1.50;;
3959;SDS011;1994;48.640;8.894;2023-07-22T13:33:38;1.80;;;1.70;;
3959;SDS011;1994;48.640;8.894;2023-07-22T13:36:05;1.73;;;1.63;;
3959;SDS011;1994;48.640;8.894;2023-07-22T13:38:31;1.70;;;1.60;;
3959;SDS011;1994;48.640;8.894;2023-07-22T13:40:57;2.77;;;2.03;;
3959;SDS011;1994;48.640;8.894;2023-07-22T13:43:23;2.17;;;1.97;;
3959;SDS011;1994;48.640;8.894;2023-07-22T13:45:49;1.60;;;1.50;;
3959;SDS011;1994;48.640;8.894;2023-07-22T13:48:14;2.50;;;2.10;;
3959;SDS011;1994;48.640;8.894;2023-07-22T13:50:40;1.80;;;1.70;;
3959;SDS011;1994;48.640;8.894;2023-07-22T13:53:07;1.77;;;1.67;;
3959;SDS011;1994;48.640;8.894;2023-07-22T13:55:33;3.23;;;1.80;;
3959;SDS011;1994;48.640;8.894;2023-07-22T13:57:58;1.90;;;1.73;;
3959;SDS011;1994;48.640;8.894;2023-07-22T14:00:24;8.13;;;2.27;;
3959;SDS011;1994;48.640;8.894;2023-07-22T14:02:50;1.60;;;1.33;;
3959;SDS011;1994;48.640;8.894;2023-07-22T14:05:16;2.40;;;2.20;;
3959;SDS011;1994;48.640;8.894;2023-07-22T14:07:42;1.67;;;1.57;;
3959;SDS011;1994;48.640;8.894;2023-07-22T14:10:07;2.13;;;1.83;;
3959;SDS011;1994;48.640;8.894;2023-07-22T14:12:34;1.97;;;1.87;;
3959;SDS011;1994;48.640;8.894;2023-07-22T14:15:00;2.03;;;1.93;;
3959;SDS011;1994;48.640;8.894;2023-07-22T14:17:29;2.40;;;2.20;;
3959;SDS011;1994;48.640;8.894;2023-07-22T14:19:57;1.77;;;1.67;;
3959;SDS011;1994;48.640;8.894;2023-07-22T14:22:24;3.00;;;2.10;;
3959;SDS011;1994;48.640;8.894;2023-07-22T14:24:49;2.00;;;1.90;;
3959;SDS011;1994;48.640;8.894;2023-07-22T14:27:15;1.90;;;1.80;;
3959;SDS011;1994;48.640;8.894;2023-07-22T14:29:41;1.90;;;1.80;;
3959;SDS011;1994;48.640;8.894;2023-07-22T14:32:07;2.70;;;2.00;;
3959;SDS011;1994;48.640;8.894;2023-07-22T14:34:34;2.87;;;2.00;;
3959;SDS011;1994;48.640;8.894;2023-07-22T14:36:59;3.20;;;2.30;;
3959;SDS011;1994;48.640;8.894;2023-07-22T14:39:25;2.13;;;2.03;;
3959;SDS011;1994;48.640;8.894;2023-07-22T14:41:51;2.10;;;2.00;;
3959;SDS011;1994;48.640;8.894;2023-07-22T14:44:18;1.83;;;1.67;;
3959;SDS011;1994;48.640;8.894;2023-07-22T14:46:44;2.13;;;2.00;;
3959;SDS011;1994;48.640;8.894;2023-07-22T14:49:10;1.80;;;1.70;;
3959;SDS011;1994;48.640;8.894;2023-07-22T14:51:35;1.90;;;1.80;;
3959;SDS011;1994;48.640;8.894;2023-07-22T14:54:02;1.83;;;1.73;;
3959;SDS011;1994;48.640;8.894;2023-07-22T14:56:28;3.47;;;2.10;;
3959;SDS011;1994;48.640;8.894;2023-07-22T14:58:54;1.77;;;1.67;;
3959;SDS011;1994;48.640;8.894;2023-07-22T15:01:21;5.90;;;2.83;;
3959;SDS011;1994;48.640;8.894;2023-07-22T15:03:47;5.23;;;1.97;;
3959;SDS011;1994;48.640;8.894;2023-07-22T15:06:13;2.40;;;2.20;;
3959;SDS011;1994;48.640;8.894;2023-07-22T15:08:39;2.10;;;2.00;;
3959;SDS011;1994;48.640;8.894;2023-07-22T15:11:05;1.83;;;1.73;;
3959;SDS011;1994;48.640;8.894;2023-07-22T15:13:30;1.97;;;1.87;;
3959;SDS011;1994;48.640;8.894;2023-07-22T15:15:56;2.47;;;2.27;;
3959;SDS011;1994;48.640;8.894;2023-07-22T15:18:22;2.00;;;1.90;;
3959;SDS011;1994;48.640;8.894;2023-07-22T15:20:50;2.40;;;2.20;;
3959;SDS011;1994;48.640;8.894;2023-07-22T15:23:17;3.13;;;2.20;;
3959;SDS011;1994;48.640;8.894;2023-07-22T15:25:43;2.40;;;2.20;;
3959;SDS011;1994;48.640;8.894;2023-07-22T15:28:09;2.13;;;1.93;;
3959;SDS011;1994;48.640;8.894;2023-07-22T15:30:35;2.13;;;2.00;;
3959;SDS011;1994;48.640;8.894;2023-07-22T15:33:01;2.30;;;2.20;;
3959;SDS011;1994;48.640;8.894;2023-07-22T15:35:27;2.00;;;1.90;;
3959;SDS011;1994;48.640;8.894;2023-07-22T15:37:52;3.30;;;1.90;;
3959;SDS011;1994;48.640;8.894;2023-07-22T15:40:19;4.30;;;1.73;;
3959;SDS011;1994;48.640;8.894;2023-07-22T15:42:45;2.20;;;2.10;;
3959;SDS011;1994;48.640;8.894;2023-07-22T15:45:11;2.17;;;1.93;;
3959;SDS011;1994;48.640;8.894;2023-07-22T15:47:37;1.80;;;1.70;;